Pagina principale
METAR-TAF:

METAR-TAF

Aeroporti :

Aeroporto di Bonriki

Tarawa, Kiribati

latitudine: 01-21N, longitudine: 172-55E, altezza: 2 m

Osservazione

Il bollettino è stato emesso 47 minuti fa, alle 05:00 UTC
Vento 11 kt da sud
Temperature 29°C
Umidità 74%
Pressione 1009 hPa
Visibilità 10 km o più
Poco nuvoloso ad un'altezza di 2000 ft
Nubi sparse ad un'altezza di 30000 ft

METAR: NGTA 180500Z 18011KT 9999 FEW020 SCT300 29/24 Q1009

Ora: 19:47 (05:47 UTC)

Previsione

Il bollettino è stato emesso 25 minuti fa, alle 05:22 UTC
Previsione valida dal 18 alle 06 UTC al 19 alle 06 UTC
Vento 8 kt da sud
Visibilità 10 km o più
Nubi sparse ad un'altezza di 2000 ft
Nubi sparse ad un'altezza di 10000 ft
Temporaneamente
dal 18 alle 06 UTC al 18 alle 12 UTC
Visibilità: 3000 m
Nuvoloso ad un'altezza di 1600 ft
Poco nuvoloso ad un'altezza di 1800 ft, Cumulonembo.
temporale, pioggia

TAF: NGTA 180522Z 1806/1906 17008KT 9999 SCT020 SCT100 PRB30 TEMPO 1806/1812 3000 TSRA BKN016 FEW018CB

Osservazioni e previsioni meteorologiche di più di 4000 aeroporti (messaggi METAR e TAF).

Le stazioni disponibili sono rappresentate dai dischi gialli e rossi sulla carta.

Puntare il mouse per vedere il nome della stazione.

Clicca sopra per visualizzare le osservazioni e previsioni meteorologiche.

Per cambiare la mappa : fare clic sui pulsanti verdi con una croce nera per ingrandire, il pulsante verde con un trattino per diminuire, o sulla freccia verde per le mappe adiacenti.


METAR-TAF: